createdAt,value
2022-08-17T00:00:34.234Z,10.75
2022-08-17T00:03:27.240Z,10.98
2022-08-17T00:06:01.947Z,10.82
2022-08-17T00:08:51.377Z,10.95
2022-08-17T00:11:21.876Z,11.05
2022-08-17T00:13:56.098Z,10.82
2022-08-17T00:16:50.371Z,11.68
2022-08-17T00:19:22.963Z,10.48
2022-08-17T00:22:29.445Z,11.23
2022-08-17T00:24:39.986Z,11.30
2022-08-17T00:27:07.637Z,10.90
2022-08-17T00:29:34.821Z,9.63
2022-08-17T00:33:12.432Z,13.20
2022-08-17T00:34:50.741Z,11.63
2022-08-17T00:37:18.000Z,10.90
2022-08-17T00:39:45.142Z,10.85
2022-08-17T00:42:18.747Z,9.73
2022-08-17T00:44:46.226Z,11.73
2022-08-17T00:47:13.316Z,11.57
2022-08-17T00:49:40.575Z,10.13
2022-08-17T00:52:15.643Z,10.23
2022-08-17T00:54:46.991Z,11.48
2022-08-17T00:57:28.449Z,10.85
2022-08-17T01:00:07.280Z,10.07
2022-08-17T01:02:42.052Z,9.40
2022-08-17T01:05:19.002Z,9.95
2022-08-17T01:10:58.995Z,12.13
2022-08-17T01:13:07.031Z,9.95
2022-08-17T01:15:39.782Z,10.13
2022-08-17T01:18:09.559Z,10.30
2022-08-17T01:20:48.217Z,10.93
2022-08-17T01:23:20.636Z,13.02
2022-08-17T01:25:57.130Z,11.20
2022-08-17T01:28:52.258Z,11.13
2022-08-17T01:31:15.957Z,10.63
2022-08-17T01:33:43.380Z,11.80
2022-08-17T01:36:10.472Z,13.35
2022-08-17T01:38:38.536Z,10.85
2022-08-17T01:41:12.572Z,13.02
2022-08-17T01:43:52.103Z,11.90
2022-08-17T01:46:27.094Z,10.80
2022-08-17T01:48:56.352Z,12.50
2022-08-17T01:51:32.730Z,10.70
2022-08-17T01:56:51.314Z,11.25
2022-08-17T01:59:20.508Z,12.00
2022-08-17T02:01:48.366Z,12.45
2022-08-17T02:04:15.916Z,10.98
2022-08-17T02:06:45.337Z,11.40
2022-08-17T02:09:29.590Z,13.10
2022-08-17T02:11:59.614Z,13.63
2022-08-17T02:14:26.980Z,12.57
2022-08-17T02:16:54.566Z,12.52
2022-08-17T02:19:22.313Z,11.75
2022-08-17T02:21:51.673Z,13.68
2022-08-17T02:24:59.410Z,13.93
2022-08-17T02:27:16.788Z,11.35
2022-08-17T02:29:44.157Z,11.45
2022-08-17T02:32:28.215Z,11.80
2022-08-17T02:34:59.847Z,11.40
2022-08-17T02:37:28.488Z,13.98
2022-08-17T02:39:57.374Z,12.32
2022-08-17T02:42:35.665Z,12.43
2022-08-17T02:45:05.607Z,14.70
2022-08-17T02:47:33.086Z,11.68
2022-08-17T02:50:00.212Z,14.23
2022-08-17T02:52:43.101Z,11.85
2022-08-17T02:55:16.196Z,12.45
2022-08-17T02:57:43.942Z,13.15
2022-08-17T03:00:15.643Z,12.05
2022-08-17T03:02:44.737Z,12.63
2022-08-17T03:05:13.867Z,14.23
2022-08-17T03:07:40.974Z,12.73
2022-08-17T03:10:09.571Z,14.27
2022-08-17T03:12:39.084Z,16.08
2022-08-17T03:15:10.120Z,13.73
2022-08-17T03:17:37.881Z,11.65
2022-08-17T03:20:07.598Z,12.07
2022-08-17T03:22:41.018Z,12.82
2022-08-17T03:25:15.287Z,13.20
2022-08-17T03:27:48.232Z,13.60
2022-08-17T03:30:19.130Z,13.38
2022-08-17T03:32:51.994Z,12.40
2022-08-17T03:35:22.188Z,15.82
2022-08-17T03:37:52.414Z,16.35
2022-08-17T03:40:57.765Z,16.10
2022-08-17T03:43:17.291Z,14.20
2022-08-17T03:46:03.169Z,13.38
2022-08-17T03:48:49.476Z,15.60
2022-08-17T03:51:40.433Z,12.60
2022-08-17T03:54:27.429Z,14.07
2022-08-17T03:57:00.790Z,12.68
2022-08-17T03:59:28.509Z,13.02
2022-08-17T04:01:59.034Z,15.88
2022-08-17T04:04:27.748Z,14.00
2022-08-17T04:06:55.680Z,12.63
2022-08-17T04:09:23.042Z,14.65
2022-08-17T04:11:50.234Z,13.32
2022-08-17T04:14:17.340Z,13.45
2022-08-17T04:16:44.968Z,14.73
2022-08-17T04:19:12.162Z,16.75
2022-08-17T04:21:39.418Z,13.75
2022-08-17T04:24:06.963Z,14.15
2022-08-17T04:26:53.872Z,14.63
2022-08-17T04:29:22.193Z,15.80
2022-08-17T04:31:49.344Z,12.98
2022-08-17T04:34:19.785Z,14.35
2022-08-17T04:36:50.340Z,14.95
2022-08-17T04:39:17.754Z,14.05
2022-08-17T04:42:03.566Z,14.07
2022-08-17T04:44:37.362Z,15.00
2022-08-17T04:47:07.168Z,15.43
2022-08-17T04:49:40.205Z,14.98
2022-08-17T04:52:07.355Z,14.25
2022-08-17T04:54:39.502Z,15.57
2022-08-17T04:57:06.870Z,18.35
2022-08-17T04:59:33.963Z,14.90
2022-08-17T05:02:01.143Z,16.02
2022-08-17T05:04:35.149Z,17.00
2022-08-17T05:07:04.638Z,14.88
2022-08-17T05:09:32.364Z,14.98
2022-08-17T05:12:03.125Z,16.15
2022-08-17T05:14:33.574Z,13.70
2022-08-17T05:17:02.049Z,16.42
2022-08-17T05:19:35.149Z,15.63
2022-08-17T05:22:06.152Z,15.90
2022-08-17T05:24:40.785Z,14.23
2022-08-17T05:27:18.935Z,14.98
2022-08-17T05:29:46.466Z,14.77
2022-08-17T05:32:39.054Z,15.98
2022-08-17T05:35:01.694Z,15.00
2022-08-17T05:37:29.060Z,13.07
2022-08-17T05:39:56.307Z,14.88
2022-08-17T05:42:24.134Z,14.82
2022-08-17T05:44:51.450Z,14.30
2022-08-17T05:47:18.552Z,15.35
2022-08-17T05:49:48.865Z,13.77
2022-08-17T05:52:37.604Z,15.80
2022-08-17T05:55:19.650Z,15.98
2022-08-17T05:58:05.843Z,14.77
2022-08-17T06:01:07.080Z,13.18
2022-08-17T06:03:48.178Z,12.65
2022-08-17T06:06:40.790Z,13.13
2022-08-17T06:09:35.037Z,13.93
2022-08-17T06:12:27.092Z,13.48
2022-08-17T06:15:36.508Z,14.05
2022-08-17T06:18:08.249Z,12.80
2022-08-17T06:21:00.445Z,11.85
2022-08-17T06:23:34.934Z,11.30
2022-08-17T06:26:09.093Z,12.38
2022-08-17T06:28:53.070Z,11.60
2022-08-17T06:31:29.319Z,13.75
2022-08-17T06:33:58.663Z,13.27
2022-08-17T06:37:09.150Z,11.20
2022-08-17T06:39:58.995Z,10.07
2022-08-17T06:42:54.812Z,10.27
2022-08-17T06:45:31.621Z,10.95
2022-08-17T06:47:58.854Z,10.18
2022-08-17T06:50:36.009Z,10.13
2022-08-17T06:53:26.769Z,9.70
2022-08-17T06:56:08.947Z,10.40
2022-08-17T06:58:40.301Z,10.73
2022-08-17T07:01:26.847Z,11.35
2022-08-17T07:04:11.813Z,11.10
2022-08-17T07:06:45.807Z,11.15
2022-08-17T07:09:23.360Z,10.65
2022-08-17T07:12:05.309Z,9.70
2022-08-17T07:14:37.675Z,10.27
2022-08-17T07:17:14.244Z,9.82
2022-08-17T07:19:45.517Z,13.73
2022-08-17T07:22:57.468Z,9.95
2022-08-17T07:25:30.656Z,9.60
2022-08-17T07:28:05.314Z,10.55
2022-08-17T07:30:47.601Z,10.57
2022-08-17T07:33:22.668Z,9.90
2022-08-17T07:35:50.626Z,9.18
2022-08-17T07:38:30.105Z,9.90
2022-08-17T07:41:04.848Z,11.13
2022-08-17T07:43:46.909Z,10.30
2022-08-17T07:46:52.864Z,9.70
2022-08-17T07:49:22.662Z,9.57
2022-08-17T07:51:50.501Z,9.40
2022-08-17T07:54:22.571Z,10.40
2022-08-17T07:57:18.055Z,10.05
2022-08-17T08:00:01.269Z,9.60
2022-08-17T08:02:34.385Z,10.35
2022-08-17T08:05:13.018Z,9.20
2022-08-17T08:07:56.802Z,8.38
2022-08-17T08:10:35.731Z,9.30
2022-08-17T08:13:12.243Z,9.00
2022-08-17T08:15:54.327Z,9.05
2022-08-17T08:18:55.041Z,9.00
2022-08-17T08:21:26.017Z,9.50
2022-08-17T08:24:20.709Z,10.13
2022-08-17T08:26:59.919Z,8.88
2022-08-17T08:29:50.320Z,9.00
2022-08-17T08:32:46.524Z,9.20
2022-08-17T08:35:41.685Z,9.30
2022-08-17T08:38:54.253Z,11.43
2022-08-17T08:41:42.166Z,9.35
2022-08-17T08:44:12.902Z,9.32
2022-08-17T08:46:54.104Z,9.15
2022-08-17T08:50:02.620Z,9.50
2022-08-17T08:52:52.095Z,9.27
2022-08-17T08:55:34.396Z,8.68
2022-08-17T08:58:09.351Z,8.68
2022-08-17T09:01:00.327Z,8.45
2022-08-17T09:04:24.097Z,8.20
2022-08-17T09:07:08.506Z,8.25
2022-08-17T09:10:02.960Z,7.93
2022-08-17T09:12:56.297Z,8.30
2022-08-17T09:15:38.168Z,7.70
2022-08-17T09:19:01.660Z,8.40
2022-08-17T09:21:18.288Z,8.18
2022-08-17T09:23:59.790Z,7.65
2022-08-17T09:27:08.970Z,8.40
2022-08-17T09:29:47.937Z,7.82
2022-08-17T09:32:38.067Z,7.47
2022-08-17T09:35:36.567Z,8.10
2022-08-17T09:38:34.110Z,8.00
2022-08-17T09:41:20.402Z,7.28
2022-08-17T09:44:23.016Z,8.35
2022-08-17T09:46:57.053Z,7.38
2022-08-17T09:49:27.204Z,7.20
2022-08-17T09:52:01.161Z,7.60
2022-08-17T09:54:39.500Z,7.97
2022-08-17T09:57:37.858Z,7.38
2022-08-17T10:00:25.161Z,7.68
2022-08-17T10:03:28.274Z,7.40
2022-08-17T10:06:08.399Z,7.63
2022-08-17T10:09:08.285Z,9.50
2022-08-17T10:12:20.037Z,7.95
2022-08-17T10:14:57.662Z,7.20
2022-08-17T10:17:59.599Z,7.57
2022-08-17T10:20:46.556Z,8.55
2022-08-17T10:23:46.696Z,8.10
2022-08-17T10:26:26.908Z,8.25
2022-08-17T10:29:11.554Z,7.80
2022-08-17T10:31:42.735Z,7.75
2022-08-17T10:34:34.164Z,7.40
2022-08-17T10:37:30.561Z,7.07
2022-08-17T10:40:16.011Z,7.38
2022-08-17T10:42:47.061Z,7.20
2022-08-17T10:45:31.903Z,7.60
2022-08-17T10:48:22.195Z,6.90
2022-08-17T10:51:02.221Z,6.93
2022-08-17T10:53:32.355Z,6.65
2022-08-17T10:56:14.520Z,6.78
2022-08-17T10:58:50.590Z,7.03
2022-08-17T11:01:18.360Z,7.47
2022-08-17T11:03:58.027Z,6.47
2022-08-17T11:06:37.326Z,6.60
2022-08-17T11:09:41.904Z,7.43
2022-08-17T11:12:42.683Z,7.65
2022-08-17T11:15:45.138Z,7.32
2022-08-17T11:18:23.278Z,6.75
2022-08-17T11:21:29.902Z,7.97
2022-08-17T11:24:14.008Z,7.40
2022-08-17T11:26:47.576Z,7.68
2022-08-17T11:29:53.515Z,7.45
2022-08-17T11:32:34.113Z,7.32
2022-08-17T11:35:20.184Z,8.07
2022-08-17T11:38:03.027Z,8.27
2022-08-17T11:41:05.411Z,8.43
2022-08-17T11:44:10.479Z,6.85
2022-08-17T11:47:24.132Z,6.90
2022-08-17T11:50:40.655Z,7.78
2022-08-17T11:53:37.272Z,6.88
2022-08-17T11:56:09.553Z,6.53
2022-08-17T11:58:44.507Z,7.18
2022-08-17T12:01:32.660Z,6.32
2022-08-17T12:04:21.819Z,7.25
2022-08-17T12:06:56.870Z,6.75
2022-08-17T12:09:32.972Z,6.13
2022-08-17T12:12:14.458Z,6.07
2022-08-17T12:17:40.914Z,6.45
2022-08-17T12:20:20.086Z,6.50
2022-08-17T12:23:05.781Z,5.65
2022-08-17T12:25:49.381Z,6.47
2022-08-17T12:28:38.674Z,6.18
2022-08-17T12:31:21.775Z,6.25
2022-08-17T12:33:51.776Z,5.38
2022-08-17T12:36:28.251Z,5.40
2022-08-17T12:39:00.130Z,5.75
2022-08-17T12:41:44.880Z,5.90
2022-08-17T12:44:14.016Z,5.63
2022-08-17T12:47:00.517Z,5.70
2022-08-17T12:49:35.655Z,7.75
2022-08-17T12:52:14.209Z,6.57
2022-08-17T12:54:45.834Z,6.35
2022-08-17T12:57:25.250Z,5.80
2022-08-17T12:59:59.238Z,6.57
2022-08-17T13:02:37.804Z,6.43
2022-08-17T13:05:08.588Z,6.80
2022-08-17T13:07:46.508Z,5.82
2022-08-17T13:10:33.146Z,5.70
2022-08-17T13:13:21.402Z,5.75
2022-08-17T13:16:02.268Z,5.93
2022-08-17T13:18:40.832Z,6.28
2022-08-17T13:21:18.846Z,6.88
2022-08-17T13:24:04.639Z,5.72
2022-08-17T13:26:50.847Z,6.65
2022-08-17T13:29:29.140Z,7.00
2022-08-17T13:32:13.468Z,6.53
2022-08-17T13:35:12.591Z,6.15
2022-08-17T13:37:35.611Z,7.07
2022-08-17T13:40:11.863Z,6.85
2022-08-17T13:42:51.968Z,6.38
2022-08-17T13:45:39.328Z,6.00
2022-08-17T13:48:16.212Z,6.90
2022-08-17T13:50:52.156Z,6.45
2022-08-17T13:53:40.423Z,6.55
2022-08-17T13:56:36.964Z,6.20
2022-08-17T13:59:09.469Z,6.78
2022-08-17T14:01:42.006Z,5.88
2022-08-17T14:04:19.190Z,5.60
2022-08-17T14:06:52.426Z,5.70
2022-08-17T14:09:31.368Z,5.33
2022-08-17T14:12:02.742Z,5.18
2022-08-17T14:14:30.498Z,5.88
2022-08-17T14:16:58.433Z,5.88
2022-08-17T14:19:26.189Z,5.90
2022-08-17T14:21:58.831Z,5.85
2022-08-17T14:24:30.257Z,5.97
2022-08-17T14:26:59.184Z,9.18
2022-08-17T14:29:28.929Z,5.28
2022-08-17T14:31:57.078Z,5.60
2022-08-17T14:34:25.588Z,5.97
2022-08-17T14:36:52.762Z,6.25
2022-08-17T14:39:20.549Z,6.80
2022-08-17T14:41:48.042Z,6.60
2022-08-17T14:44:15.433Z,6.18
2022-08-17T14:46:45.489Z,5.90
2022-08-17T14:49:15.649Z,8.05
2022-08-17T14:51:44.337Z,6.82
2022-08-17T14:54:33.067Z,6.45
2022-08-17T14:57:23.723Z,5.40
2022-08-17T14:59:53.383Z,5.88
2022-08-17T15:02:30.202Z,7.88
2022-08-17T15:05:07.182Z,5.87
2022-08-17T15:07:34.504Z,4.90
2022-08-17T15:10:02.297Z,6.38
2022-08-17T15:12:33.257Z,5.22
2022-08-17T15:15:05.072Z,5.55
2022-08-17T15:17:43.768Z,5.53
2022-08-17T15:20:19.217Z,5.03
2022-08-17T15:22:49.809Z,6.13
2022-08-17T15:25:18.914Z,6.57
2022-08-17T15:27:46.376Z,8.10
2022-08-17T15:30:13.793Z,6.78
2022-08-17T15:32:50.856Z,6.13
2022-08-17T15:35:28.761Z,5.97
2022-08-17T15:38:04.656Z,6.20
2022-08-17T15:40:36.777Z,5.82
2022-08-17T15:43:17.217Z,6.50
2022-08-17T15:45:58.580Z,5.50
2022-08-17T15:48:41.273Z,5.43
2022-08-17T15:51:13.392Z,5.32
2022-08-17T15:53:43.281Z,6.00
2022-08-17T15:56:11.295Z,5.07
2022-08-17T15:58:38.518Z,5.43
2022-08-17T16:01:16.560Z,5.30
2022-08-17T16:04:03.877Z,4.93
2022-08-17T16:06:34.774Z,5.10
2022-08-17T16:09:02.022Z,5.20
2022-08-17T16:11:29.158Z,4.90
2022-08-17T16:13:56.452Z,5.40
2022-08-17T16:16:24.322Z,5.78
2022-08-17T16:18:53.663Z,5.32
2022-08-17T16:21:26.724Z,5.15
2022-08-17T16:24:03.412Z,6.40
2022-08-17T16:26:32.250Z,6.43
2022-08-17T16:29:01.569Z,7.53
2022-08-17T16:31:29.050Z,5.63
2022-08-17T16:34:16.413Z,5.63
2022-08-17T16:36:51.855Z,5.55
2022-08-17T16:39:29.118Z,6.75
2022-08-17T16:41:57.094Z,6.15
2022-08-17T16:44:27.494Z,5.50
2022-08-17T16:46:54.785Z,5.57
2022-08-17T16:49:24.472Z,5.38
2022-08-17T16:52:11.755Z,6.18
2022-08-17T16:54:43.734Z,5.25
2022-08-17T16:57:12.979Z,5.70
2022-08-17T16:59:42.704Z,5.30
2022-08-17T17:02:15.722Z,5.97
2022-08-17T17:04:50.936Z,5.40
2022-08-17T17:07:42.341Z,5.20
2022-08-17T17:10:15.684Z,5.35
2022-08-17T17:13:02.041Z,5.47
2022-08-17T17:15:44.790Z,5.18
2022-08-17T17:18:15.311Z,6.03
2022-08-17T17:20:54.050Z,6.35
2022-08-17T17:23:43.487Z,6.70
2022-08-17T17:26:29.102Z,6.70
2022-08-17T17:29:11.248Z,5.65
2022-08-17T17:31:54.863Z,6.13
2022-08-17T17:34:25.888Z,6.00
2022-08-17T17:36:58.368Z,6.22
2022-08-17T17:39:25.586Z,6.45
2022-08-17T17:41:57.408Z,6.07
2022-08-17T17:44:33.035Z,6.57
2022-08-17T17:47:02.578Z,5.65
2022-08-17T17:49:41.424Z,6.90
2022-08-17T17:52:32.412Z,6.40
2022-08-17T17:55:35.315Z,6.97
2022-08-17T17:58:32.095Z,7.22
2022-08-17T18:01:02.022Z,7.25
2022-08-17T18:03:51.794Z,7.35
2022-08-17T18:06:52.699Z,6.65
2022-08-17T18:09:49.893Z,7.70
2022-08-17T18:12:34.491Z,7.53
2022-08-17T18:15:18.565Z,7.18
2022-08-17T18:18:02.642Z,7.20
2022-08-17T18:20:43.182Z,6.65
2022-08-17T18:23:14.010Z,7.07
2022-08-17T18:25:45.180Z,21.35
2022-08-17T18:28:26.558Z,10.02
2022-08-17T18:31:12.428Z,8.02
2022-08-17T18:33:43.209Z,7.72
2022-08-17T18:36:12.081Z,7.70
2022-08-17T18:38:42.501Z,8.50
2022-08-17T18:41:21.422Z,9.57
2022-08-17T18:44:06.096Z,7.80
2022-08-17T18:46:37.789Z,8.02
2022-08-17T18:49:29.143Z,7.78
2022-08-17T18:52:14.320Z,8.60
2022-08-17T18:55:20.804Z,9.38
2022-08-17T18:57:57.330Z,9.18
2022-08-17T19:00:38.964Z,8.80
2022-08-17T19:03:23.928Z,8.35
2022-08-17T19:05:57.280Z,8.18
2022-08-17T19:08:30.729Z,8.30
2022-08-17T19:11:07.552Z,9.02
2022-08-17T19:13:39.817Z,10.60
2022-08-17T19:16:25.180Z,10.07
2022-08-17T19:19:16.108Z,8.57
2022-08-17T19:21:53.137Z,9.38
2022-08-17T19:24:23.123Z,9.07
2022-08-17T19:26:55.048Z,9.20
2022-08-17T19:29:56.943Z,12.00
2022-08-17T19:32:31.022Z,9.80
2022-08-17T19:34:58.605Z,17.80
2022-08-17T19:38:03.189Z,15.43
2022-08-17T19:41:13.719Z,12.70
2022-08-17T19:44:11.809Z,13.00
2022-08-17T19:46:49.973Z,10.60
2022-08-17T19:49:33.770Z,11.23
2022-08-17T19:52:29.508Z,12.63
2022-08-17T19:55:21.086Z,11.55
2022-08-17T19:57:56.050Z,11.82
2022-08-17T20:00:23.495Z,11.77
2022-08-17T20:03:09.135Z,10.15
2022-08-17T20:06:10.893Z,12.07
2022-08-17T20:08:38.231Z,12.32
2022-08-17T20:11:26.143Z,13.48
2022-08-17T20:14:05.467Z,12.45
2022-08-17T20:16:34.148Z,13.07
2022-08-17T20:19:24.054Z,12.88
2022-08-17T20:22:23.117Z,12.55
2022-08-17T20:25:13.678Z,13.30
2022-08-17T20:28:25.518Z,15.48
2022-08-17T20:30:52.962Z,13.80
2022-08-17T20:33:33.602Z,13.68
2022-08-17T20:36:22.396Z,13.18
2022-08-17T20:38:55.852Z,12.77
2022-08-17T20:41:28.425Z,13.30
2022-08-17T20:43:59.095Z,11.52
2022-08-17T20:46:38.365Z,12.27
2022-08-17T20:49:11.321Z,13.23
2022-08-17T20:54:46.996Z,15.98
2022-08-17T20:57:32.550Z,12.80
2022-08-17T21:00:39.731Z,13.82
2022-08-17T21:03:47.999Z,14.88
2022-08-17T21:06:21.217Z,15.68
2022-08-17T21:08:57.906Z,13.23
2022-08-17T21:11:57.246Z,13.32
2022-08-17T21:14:20.868Z,12.07
2022-08-17T21:17:59.280Z,13.30
2022-08-17T21:20:59.309Z,13.57
2022-08-17T21:23:46.772Z,11.35
2022-08-17T21:26:32.221Z,11.32
2022-08-17T21:29:31.730Z,12.70
2022-08-17T21:32:00.614Z,11.85
2022-08-17T21:34:37.445Z,13.05
2022-08-17T21:39:55.521Z,13.88
2022-08-17T21:42:29.786Z,12.75
2022-08-17T21:45:12.137Z,14.73
2022-08-17T21:47:44.078Z,11.35
2022-08-17T21:50:21.457Z,15.10
2022-08-17T21:52:50.112Z,12.02
2022-08-17T21:55:28.232Z,12.15
2022-08-17T21:58:13.518Z,12.70
2022-08-17T22:03:24.661Z,13.77
2022-08-17T22:05:51.992Z,13.25
2022-08-17T22:08:22.548Z,13.25
2022-08-17T22:10:51.476Z,14.77
2022-08-17T22:13:22.634Z,13.02
2022-08-17T22:16:28.489Z,12.07
2022-08-17T22:18:58.920Z,13.60
2022-08-17T22:21:26.798Z,14.15
2022-08-17T22:24:17.985Z,15.30
2022-08-17T22:27:10.949Z,14.77
2022-08-17T22:29:58.004Z,17.40
2022-08-17T22:32:41.401Z,16.20
2022-08-17T22:35:26.644Z,17.42
2022-08-17T22:37:54.221Z,17.90
2022-08-17T22:40:39.449Z,17.35
2022-08-17T22:43:12.622Z,16.38
2022-08-17T22:45:46.915Z,15.13
2022-08-17T22:48:22.382Z,16.73
2022-08-17T22:51:13.475Z,19.67
2022-08-17T22:54:16.018Z,17.98
2022-08-17T22:57:20.027Z,17.00
2022-08-17T22:59:53.866Z,17.55
2022-08-17T23:02:34.053Z,19.13
2022-08-17T23:05:10.779Z,20.80
2022-08-17T23:10:06.691Z,20.38
2022-08-17T23:12:38.889Z,21.05
2022-08-17T23:15:12.724Z,19.75
2022-08-17T23:17:39.896Z,17.35
2022-08-17T23:20:11.534Z,17.30
2022-08-17T23:22:51.318Z,16.65
2022-08-17T23:25:31.140Z,18.02
2022-08-17T23:28:01.655Z,15.90
2022-08-17T23:30:31.317Z,15.40
2022-08-17T23:33:05.392Z,18.15
2022-08-17T23:35:40.508Z,15.27
2022-08-17T23:38:12.256Z,15.45
2022-08-17T23:40:40.931Z,15.20
2022-08-17T23:43:17.372Z,14.70
2022-08-17T23:45:59.938Z,16.35
2022-08-17T23:48:34.987Z,16.67
2022-08-17T23:51:18.931Z,16.85
2022-08-17T23:53:50.382Z,14.40
2022-08-17T23:56:23.003Z,16.33
2022-08-17T23:58:50.222Z,16.13
